sensor_id;sensor_type;location;lat;lon;timestamp;pressure;altitude;pressure_sealevel;temperature;humidity
47430;BME280;33181;49.246;7.372;2024-02-23T00:02:06;96751.56;;;6.72;83.08
47430;BME280;33181;49.246;7.372;2024-02-23T00:04:31;96762.44;;;6.67;82.39
47430;BME280;33181;49.246;7.372;2024-02-23T00:06:57;96769.16;;;6.70;82.65
47430;BME280;33181;49.246;7.372;2024-02-23T00:09:23;96780.91;;;6.74;82.33
47430;BME280;33181;49.246;7.372;2024-02-23T00:11:49;96787.56;;;6.86;82.11
47430;BME280;33181;49.246;7.372;2024-02-23T00:14:16;96788.31;;;6.79;81.61
47430;BME280;33181;49.246;7.372;2024-02-23T00:16:45;96778.91;;;6.68;81.46
47430;BME280;33181;49.246;7.372;2024-02-23T00:19:11;96782.09;;;6.62;81.11
47430;BME280;33181;49.246;7.372;2024-02-23T00:21:38;96788.00;;;6.64;81.64
47430;BME280;33181;49.246;7.372;2024-02-23T00:24:08;96785.25;;;6.65;80.01
47430;BME280;33181;49.246;7.372;2024-02-23T00:26:33;96793.97;;;6.74;80.43
47430;BME280;33181;49.246;7.372;2024-02-23T00:28:59;96807.47;;;6.69;79.94
47430;BME280;33181;49.246;7.372;2024-02-23T00:31:25;96809.59;;;6.74;79.45
47430;BME280;33181;49.246;7.372;2024-02-23T00:33:51;96815.06;;;6.63;79.44
47430;BME280;33181;49.246;7.372;2024-02-23T00:36:16;96807.00;;;6.56;78.70
47430;BME280;33181;49.246;7.372;2024-02-23T00:38:42;96813.56;;;6.60;78.99
47430;BME280;33181;49.246;7.372;2024-02-23T00:41:08;96814.31;;;6.70;79.35
47430;BME280;33181;49.246;7.372;2024-02-23T00:43:40;96804.16;;;6.67;78.81
47430;BME280;33181;49.246;7.372;2024-02-23T00:46:09;96802.88;;;6.54;78.49
47430;BME280;33181;49.246;7.372;2024-02-23T00:48:35;96837.44;;;6.56;78.15
47430;BME280;33181;49.246;7.372;2024-02-23T00:51:04;96864.72;;;6.43;77.75
47430;BME280;33181;49.246;7.372;2024-02-23T00:53:33;96863.78;;;5.97;79.53
47430;BME280;33181;49.246;7.372;2024-02-23T00:55:59;96869.97;;;5.67;81.49
47430;BME280;33181;49.246;7.372;2024-02-23T00:58:24;96869.63;;;5.33;84.19
47430;BME280;33181;49.246;7.372;2024-02-23T01:00:50;96891.09;;;5.35;84.98
47430;BME280;33181;49.246;7.372;2024-02-23T01:03:18;96882.06;;;5.20;86.64
47430;BME280;33181;49.246;7.372;2024-02-23T01:05:43;96884.81;;;5.08;87.95
47430;BME280;33181;49.246;7.372;2024-02-23T01:08:09;96881.94;;;5.11;88.09
47430;BME280;33181;49.246;7.372;2024-02-23T01:10:35;96894.25;;;5.09;88.81
47430;BME280;33181;49.246;7.372;2024-02-23T01:13:01;96887.28;;;5.20;88.18
47430;BME280;33181;49.246;7.372;2024-02-23T01:15:26;96892.63;;;5.08;88.68
47430;BME280;33181;49.246;7.372;2024-02-23T01:17:52;96888.22;;;5.09;88.49
47430;BME280;33181;49.246;7.372;2024-02-23T01:20:20;96892.06;;;5.05;88.98
47430;BME280;33181;49.246;7.372;2024-02-23T01:22:45;96896.56;;;5.03;89.13
47430;BME280;33181;49.246;7.372;2024-02-23T01:25:12;96893.31;;;5.20;89.00
47430;BME280;33181;49.246;7.372;2024-02-23T01:27:37;96897.84;;;5.28;88.25
47430;BME280;33181;49.246;7.372;2024-02-23T01:30:04;96896.84;;;5.19;87.26
47430;BME280;33181;49.246;7.372;2024-02-23T01:32:30;96890.72;;;5.30;86.51
47430;BME280;33181;49.246;7.372;2024-02-23T01:34:56;96885.91;;;5.35;86.02
47430;BME280;33181;49.246;7.372;2024-02-23T01:37:21;96893.16;;;5.41;85.62
47430;BME280;33181;49.246;7.372;2024-02-23T01:39:47;96884.69;;;5.58;85.52
47430;BME280;33181;49.246;7.372;2024-02-23T01:42:13;96893.13;;;5.70;85.05
47430;BME280;33181;49.246;7.372;2024-02-23T01:44:39;96893.13;;;5.80;84.65
47430;BME280;33181;49.246;7.372;2024-02-23T01:47:04;96891.78;;;5.66;83.58
47430;BME280;33181;49.246;7.372;2024-02-23T01:49:31;96901.78;;;5.71;83.14
47430;BME280;33181;49.246;7.372;2024-02-23T01:52:00;96903.84;;;5.67;83.76
47430;BME280;33181;49.246;7.372;2024-02-23T01:54:26;96906.31;;;5.69;83.86
47430;BME280;33181;49.246;7.372;2024-02-23T01:56:54;96923.84;;;5.67;84.19
47430;BME280;33181;49.246;7.372;2024-02-23T01:59:20;96917.28;;;5.63;84.88
47430;BME280;33181;49.246;7.372;2024-02-23T02:01:47;96917.97;;;5.65;85.63
47430;BME280;33181;49.246;7.372;2024-02-23T02:04:12;96914.69;;;5.53;84.90
47430;BME280;33181;49.246;7.372;2024-02-23T02:06:39;96901.13;;;5.59;84.92
47430;BME280;33181;49.246;7.372;2024-02-23T02:09:05;96906.16;;;5.61;84.88
47430;BME280;33181;49.246;7.372;2024-02-23T02:11:31;96910.28;;;5.53;85.12
47430;BME280;33181;49.246;7.372;2024-02-23T02:13:57;96907.84;;;5.52;85.31
47430;BME280;33181;49.246;7.372;2024-02-23T02:16:23;96917.41;;;5.51;85.64
47430;BME280;33181;49.246;7.372;2024-02-23T02:18:48;96918.38;;;5.50;86.21
47430;BME280;33181;49.246;7.372;2024-02-23T02:21:14;96922.78;;;5.50;86.14
47430;BME280;33181;49.246;7.372;2024-02-23T02:23:40;96918.09;;;5.44;86.23
47430;BME280;33181;49.246;7.372;2024-02-23T02:26:06;96926.47;;;5.38;86.23
47430;BME280;33181;49.246;7.372;2024-02-23T02:28:32;96929.34;;;5.44;86.27
47430;BME280;33181;49.246;7.372;2024-02-23T02:30:58;96928.25;;;5.47;85.89
47430;BME280;33181;49.246;7.372;2024-02-23T02:33:23;96939.06;;;5.32;84.58
47430;BME280;33181;49.246;7.372;2024-02-23T02:35:49;96924.69;;;5.38;84.30
47430;BME280;33181;49.246;7.372;2024-02-23T02:38:15;96934.16;;;5.49;83.98
47430;BME280;33181;49.246;7.372;2024-02-23T02:40:41;96937.31;;;5.33;83.71
47430;BME280;33181;49.246;7.372;2024-02-23T02:43:08;96947.28;;;5.47;83.99
47430;BME280;33181;49.246;7.372;2024-02-23T02:45:33;96939.47;;;5.28;83.38
47430;BME280;33181;49.246;7.372;2024-02-23T02:48:03;96933.03;;;5.22;83.47
47430;BME280;33181;49.246;7.372;2024-02-23T02:50:29;96941.00;;;5.30;83.63
47430;BME280;33181;49.246;7.372;2024-02-23T02:52:57;96952.22;;;5.41;84.03
47430;BME280;33181;49.246;7.372;2024-02-23T02:55:23;96955.63;;;5.31;84.04
47430;BME280;33181;49.246;7.372;2024-02-23T02:57:48;96952.91;;;5.43;83.96
47430;BME280;33181;49.246;7.372;2024-02-23T03:00:14;96947.72;;;5.52;83.52
47430;BME280;33181;49.246;7.372;2024-02-23T03:02:40;96953.88;;;5.61;82.97
47430;BME280;33181;49.246;7.372;2024-02-23T03:05:06;96951.56;;;5.68;83.11
47430;BME280;33181;49.246;7.372;2024-02-23T03:07:32;96948.66;;;5.80;82.82
47430;BME280;33181;49.246;7.372;2024-02-23T03:09:58;96944.56;;;5.78;82.69
47430;BME280;33181;49.246;7.372;2024-02-23T03:12:23;96948.09;;;5.67;82.37
47430;BME280;33181;49.246;7.372;2024-02-23T03:14:49;96944.03;;;5.65;83.06
47430;BME280;33181;49.246;7.372;2024-02-23T03:17:15;96954.56;;;5.73;83.13
47430;BME280;33181;49.246;7.372;2024-02-23T03:19:41;96948.53;;;5.72;82.73
47430;BME280;33181;49.246;7.372;2024-02-23T03:22:07;96948.66;;;5.61;83.18
47430;BME280;33181;49.246;7.372;2024-02-23T03:24:33;96948.66;;;5.61;83.01
47430;BME280;33181;49.246;7.372;2024-02-23T03:26:59;96952.22;;;5.50;83.45
47430;BME280;33181;49.246;7.372;2024-02-23T03:29:24;96954.28;;;5.56;83.26
47430;BME280;33181;49.246;7.372;2024-02-23T03:31:50;96953.75;;;5.63;83.16
47430;BME280;33181;49.246;7.372;2024-02-23T03:34:16;96948.78;;;5.69;82.45
47430;BME280;33181;49.246;7.372;2024-02-23T03:36:43;96946.91;;;5.62;82.15
47430;BME280;33181;49.246;7.372;2024-02-23T03:39:08;96946.91;;;5.62;82.41
47430;BME280;33181;49.246;7.372;2024-02-23T03:41:34;96948.38;;;5.64;82.24
47430;BME280;33181;49.246;7.372;2024-02-23T03:44:00;96948.53;;;5.72;82.04
47430;BME280;33181;49.246;7.372;2024-02-23T03:46:25;96946.91;;;5.62;81.99
47430;BME280;33181;49.246;7.372;2024-02-23T03:48:51;96951.41;;;5.50;82.71
47430;BME280;33181;49.246;7.372;2024-02-23T03:51:18;96950.31;;;5.52;82.46
47430;BME280;33181;49.246;7.372;2024-02-23T03:53:43;96956.88;;;5.47;82.91
47430;BME280;33181;49.246;7.372;2024-02-23T03:56:09;96956.47;;;5.42;82.96
47430;BME280;33181;49.246;7.372;2024-02-23T03:58:35;96955.63;;;5.31;83.57
47430;BME280;33181;49.246;7.372;2024-02-23T04:01:01;96945.38;;;5.40;83.33
47430;BME280;33181;49.246;7.372;2024-02-23T04:03:26;96955.09;;;5.38;83.48
47430;BME280;33181;49.246;7.372;2024-02-23T04:05:52;96954.00;;;5.50;83.19
47430;BME280;33181;49.246;7.372;2024-02-23T04:08:18;96954.81;;;5.50;82.92
47430;BME280;33181;49.246;7.372;2024-02-23T04:10:43;96957.16;;;5.34;83.43
47430;BME280;33181;49.246;7.372;2024-02-23T04:13:09;96949.47;;;5.42;83.27
47430;BME280;33181;49.246;7.372;2024-02-23T04:15:36;96952.38;;;5.49;83.10
47430;BME280;33181;49.246;7.372;2024-02-23T04:18:01;96947.72;;;5.33;83.90
47430;BME280;33181;49.246;7.372;2024-02-23T04:20:27;96941.94;;;5.29;84.00
47430;BME280;33181;49.246;7.372;2024-02-23T04:22:53;96946.03;;;5.22;84.09
47430;BME280;33181;49.246;7.372;2024-02-23T04:25:18;96943.59;;;5.21;84.22
47430;BME280;33181;49.246;7.372;2024-02-23T04:27:44;96945.06;;;5.14;84.79
47430;BME280;33181;49.246;7.372;2024-02-23T04:30:11;96939.59;;;5.17;84.63
47430;BME280;33181;49.246;7.372;2024-02-23T04:32:38;96939.91;;;5.33;84.20
47430;BME280;33181;49.246;7.372;2024-02-23T04:35:04;96936.59;;;5.11;84.18
47430;BME280;33181;49.246;7.372;2024-02-23T04:37:30;96930.94;;;5.06;84.06
47430;BME280;33181;49.246;7.372;2024-02-23T04:39:56;96930.03;;;5.17;84.03
47430;BME280;33181;49.246;7.372;2024-02-23T04:42:22;96932.91;;;5.24;83.91
47430;BME280;33181;49.246;7.372;2024-02-23T04:44:47;96928.09;;;5.29;83.44
47430;BME280;33181;49.246;7.372;2024-02-23T04:47:15;96935.63;;;5.22;84.11
47430;BME280;33181;49.246;7.372;2024-02-23T04:49:40;96924.81;;;5.27;83.50
47430;BME280;33181;49.246;7.372;2024-02-23T04:52:07;96932.09;;;5.33;83.34
47430;BME280;33181;49.246;7.372;2024-02-23T04:54:34;96932.75;;;5.25;83.83
47430;BME280;33181;49.246;7.372;2024-02-23T04:57:00;96942.78;;;5.30;83.30
47430;BME280;33181;49.246;7.372;2024-02-23T04:59:26;96939.03;;;5.23;83.65
47430;BME280;33181;49.246;7.372;2024-02-23T05:01:52;96935.34;;;5.35;83.75
47430;BME280;33181;49.246;7.372;2024-02-23T05:04:17;96925.91;;;5.34;83.81
47430;BME280;33181;49.246;7.372;2024-02-23T05:06:43;96924.41;;;5.22;84.06
47430;BME280;33181;49.246;7.372;2024-02-23T05:09:09;96908.78;;;5.22;84.05
47430;BME280;33181;49.246;7.372;2024-02-23T05:11:35;96906.88;;;5.24;83.39
47430;BME280;33181;49.246;7.372;2024-02-23T05:14:01;96908.78;;;5.22;83.77
47430;BME280;33181;49.246;7.372;2024-02-23T05:16:26;96911.66;;;5.19;83.70
47430;BME280;33181;49.246;7.372;2024-02-23T05:18:52;96905.19;;;5.03;84.57
47430;BME280;33181;49.246;7.372;2024-02-23T05:21:18;96899.44;;;5.00;84.37
47430;BME280;33181;49.246;7.372;2024-02-23T05:23:43;96901.06;;;4.81;85.33
47430;BME280;33181;49.246;7.372;2024-02-23T05:26:12;96896.34;;;4.56;86.49
47430;BME280;33181;49.246;7.372;2024-02-23T05:28:37;96900.31;;;4.60;86.22
47430;BME280;33181;49.246;7.372;2024-02-23T05:31:03;96893.22;;;4.62;86.04
47430;BME280;33181;49.246;7.372;2024-02-23T05:33:30;96902.06;;;4.50;87.06
47430;BME280;33181;49.246;7.372;2024-02-23T05:35:55;96896.75;;;4.51;86.08
47430;BME280;33181;49.246;7.372;2024-02-23T05:38:21;96899.19;;;4.53;86.24
47430;BME280;33181;49.246;7.372;2024-02-23T05:40:47;96892.88;;;4.46;86.17
47430;BME280;33181;49.246;7.372;2024-02-23T05:43:14;96902.34;;;4.56;85.73
47430;BME280;33181;49.246;7.372;2024-02-23T05:45:40;96901.78;;;4.53;85.25
47430;BME280;33181;49.246;7.372;2024-02-23T05:48:06;96910.69;;;4.50;85.55
47430;BME280;33181;49.246;7.372;2024-02-23T05:50:32;96914.38;;;4.48;85.37
47430;BME280;33181;49.246;7.372;2024-02-23T05:52:58;96911.78;;;4.48;85.62
47430;BME280;33181;49.246;7.372;2024-02-23T05:55:24;96909.31;;;4.46;85.89
47430;BME280;33181;49.246;7.372;2024-02-23T05:57:50;96911.28;;;4.23;86.84
47430;BME280;33181;49.246;7.372;2024-02-23T06:00:19;96917.09;;;4.15;87.27
47430;BME280;33181;49.246;7.372;2024-02-23T06:02:45;96910.72;;;4.20;87.54
47430;BME280;33181;49.246;7.372;2024-02-23T06:05:12;96901.72;;;4.33;86.36
47430;BME280;33181;49.246;7.372;2024-02-23T06:07:38;96904.06;;;4.36;86.29
47430;BME280;33181;49.246;7.372;2024-02-23T06:10:04;96908.94;;;4.20;86.77
47430;BME280;33181;49.246;7.372;2024-02-23T06:12:30;96907.66;;;4.14;87.41
47430;BME280;33181;49.246;7.372;2024-02-23T06:14:56;96904.19;;;4.04;87.49
47430;BME280;33181;49.246;7.372;2024-02-23T06:17:24;96906.81;;;4.04;87.79
47430;BME280;33181;49.246;7.372;2024-02-23T06:19:50;96905.09;;;3.93;87.67
47430;BME280;33181;49.246;7.372;2024-02-23T06:22:18;96900.28;;;4.10;87.50
47430;BME280;33181;49.246;7.372;2024-02-23T06:24:47;96906.59;;;4.17;86.84
47430;BME280;33181;49.246;7.372;2024-02-23T06:27:13;96910.19;;;4.26;86.24
47430;BME280;33181;49.246;7.372;2024-02-23T06:29:39;96914.78;;;4.22;86.57
47430;BME280;33181;49.246;7.372;2024-02-23T06:32:05;96913.97;;;4.22;86.51
47430;BME280;33181;49.246;7.372;2024-02-23T06:34:31;96910.03;;;4.27;86.49
47430;BME280;33181;49.246;7.372;2024-02-23T06:36:57;96922.47;;;4.24;86.28
47430;BME280;33181;49.246;7.372;2024-02-23T06:39:23;96927.53;;;4.25;86.15
47430;BME280;33181;49.246;7.372;2024-02-23T06:41:49;96922.53;;;4.12;86.19
47430;BME280;33181;49.246;7.372;2024-02-23T06:44:14;96927.22;;;4.18;86.45
47430;BME280;33181;49.246;7.372;2024-02-23T06:46:40;96921.81;;;4.31;86.23
47430;BME280;33181;49.246;7.372;2024-02-23T06:49:07;96913.72;;;4.25;86.28
47430;BME280;33181;49.246;7.372;2024-02-23T06:51:33;96914.56;;;4.35;86.07
47430;BME280;33181;49.246;7.372;2024-02-23T06:53:59;96915.97;;;4.39;85.30
47430;BME280;33181;49.246;7.372;2024-02-23T06:56:24;96912.94;;;4.34;85.72
47430;BME280;33181;49.246;7.372;2024-02-23T06:58:50;96919.25;;;4.41;85.19
47430;BME280;33181;49.246;7.372;2024-02-23T07:01:16;96915.84;;;4.40;85.14
47430;BME280;33181;49.246;7.372;2024-02-23T07:03:42;96926.28;;;4.20;85.18
47430;BME280;33181;49.246;7.372;2024-02-23T07:06:09;96931.66;;;4.28;85.50
47430;BME280;33181;49.246;7.372;2024-02-23T07:08:37;96923.59;;;4.31;85.15
47430;BME280;33181;49.246;7.372;2024-02-23T07:11:03;96918.69;;;4.37;85.21
47430;BME280;33181;49.246;7.372;2024-02-23T07:13:29;96929.84;;;4.49;84.78
47430;BME280;33181;49.246;7.372;2024-02-23T07:15:55;96920.41;;;4.48;84.41
47430;BME280;33181;49.246;7.372;2024-02-23T07:18:22;96921.31;;;4.87;83.23
47430;BME280;33181;49.246;7.372;2024-02-23T07:20:47;96918.66;;;5.18;81.56
47430;BME280;33181;49.246;7.372;2024-02-23T07:23:13;96911.22;;;5.14;80.79
47430;BME280;33181;49.246;7.372;2024-02-23T07:25:41;96914.78;;;5.03;80.46
47430;BME280;33181;49.246;7.372;2024-02-23T07:28:07;96916.28;;;4.96;81.38
47430;BME280;33181;49.246;7.372;2024-02-23T07:30:33;96917.81;;;5.08;81.33
47430;BME280;33181;49.246;7.372;2024-02-23T07:33:00;96916.59;;;5.12;80.67
47430;BME280;33181;49.246;7.372;2024-02-23T07:35:26;96914.38;;;5.07;81.01
47430;BME280;33181;49.246;7.372;2024-02-23T07:37:52;96915.34;;;5.16;80.87
47430;BME280;33181;49.246;7.372;2024-02-23T07:40:18;96912.91;;;5.15;80.33
47430;BME280;33181;49.246;7.372;2024-02-23T07:42:43;96911.63;;;4.99;80.92
47430;BME280;33181;49.246;7.372;2024-02-23T07:45:10;96918.38;;;5.11;81.12
47430;BME280;33181;49.246;7.372;2024-02-23T07:47:36;96923.31;;;5.15;80.63
47430;BME280;33181;49.246;7.372;2024-02-23T07:50:02;96932.47;;;5.19;80.94
47430;BME280;33181;49.246;7.372;2024-02-23T07:52:28;96937.84;;;5.17;80.98
47430;BME280;33181;49.246;7.372;2024-02-23T07:54:54;96940.16;;;5.30;80.46
47430;BME280;33181;49.246;7.372;2024-02-23T07:57:20;96942.50;;;5.33;80.33
47430;BME280;33181;49.246;7.372;2024-02-23T07:59:46;96941.25;;;5.27;80.88
47430;BME280;33181;49.246;7.372;2024-02-23T08:02:13;96950.31;;;5.23;81.15
47430;BME280;33181;49.246;7.372;2024-02-23T08:04:40;96951.13;;;5.24;81.04
47430;BME280;33181;49.246;7.372;2024-02-23T08:07:07;96949.72;;;5.20;81.34
47430;BME280;33181;49.246;7.372;2024-02-23T08:09:33;96938.66;;;5.27;81.51
47430;BME280;33181;49.246;7.372;2024-02-23T08:11:59;96943.88;;;5.37;81.24
47430;BME280;33181;49.246;7.372;2024-02-23T08:18:06;96946.03;;;5.32;82.09
47430;BME280;33181;49.246;7.372;2024-02-23T08:20:32;96939.75;;;5.34;81.63
47430;BME280;33181;49.246;7.372;2024-02-23T08:22:57;96938.25;;;5.42;81.99
47430;BME280;33181;49.246;7.372;2024-02-23T08:25:23;96943.88;;;5.47;81.17
47430;BME280;33181;49.246;7.372;2024-02-23T08:27:49;96947.44;;;5.55;81.63
47430;BME280;33181;49.246;7.372;2024-02-23T08:30:15;96949.88;;;5.67;81.18
47430;BME280;33181;49.246;7.372;2024-02-23T08:32:41;96950.44;;;5.90;80.74
47430;BME280;33181;49.246;7.372;2024-02-23T08:35:07;96942.09;;;6.06;79.54
47430;BME280;33181;49.246;7.372;2024-02-23T08:37:33;96936.81;;;6.25;78.79
47430;BME280;33181;49.246;7.372;2024-02-23T08:39:59;96947.38;;;6.23;78.22
47430;BME280;33181;49.246;7.372;2024-02-23T08:42:25;96941.63;;;6.20;77.40
47430;BME280;33181;49.246;7.372;2024-02-23T08:44:51;96946.28;;;6.26;77.44
47430;BME280;33181;49.246;7.372;2024-02-23T08:47:17;96945.47;;;6.25;77.17
47430;BME280;33181;49.246;7.372;2024-02-23T08:49:42;96940.81;;;6.19;76.85
47430;BME280;33181;49.246;7.372;2024-02-23T08:52:08;96929.94;;;6.34;77.57
47430;BME280;33181;49.246;7.372;2024-02-23T08:54:34;96948.06;;;6.25;76.85
47430;BME280;33181;49.246;7.372;2024-02-23T08:56:59;96943.53;;;6.28;77.43
47430;BME280;33181;49.246;7.372;2024-02-23T08:59:25;96950.91;;;6.32;77.51
47430;BME280;33181;49.246;7.372;2024-02-23T09:01:51;96942.94;;;6.43;77.92
47430;BME280;33181;49.246;7.372;2024-02-23T09:04:16;96946.53;;;6.33;77.22
47430;BME280;33181;49.246;7.372;2024-02-23T09:06:42;96953.97;;;6.28;77.48
47430;BME280;33181;49.246;7.372;2024-02-23T09:09:08;96950.91;;;6.32;78.26
47430;BME280;33181;49.246;7.372;2024-02-23T09:11:34;96950.19;;;6.40;78.22
47430;BME280;33181;49.246;7.372;2024-02-23T09:13:59;96959.75;;;6.21;78.51
47430;BME280;33181;49.246;7.372;2024-02-23T09:16:25;96943.56;;;6.08;78.94
47430;BME280;33181;49.246;7.372;2024-02-23T09:18:51;96953.41;;;6.34;79.95
47430;BME280;33181;49.246;7.372;2024-02-23T09:21:17;96954.03;;;6.45;79.20
47430;BME280;33181;49.246;7.372;2024-02-23T09:23:42;96950.16;;;6.59;78.72
47430;BME280;33181;49.246;7.372;2024-02-23T09:26:11;96958.31;;;6.74;78.31
47430;BME280;33181;49.246;7.372;2024-02-23T09:28:40;96959.09;;;6.84;77.00
47430;BME280;33181;49.246;7.372;2024-02-23T09:31:11;96949.81;;;6.72;77.35
47430;BME280;33181;49.246;7.372;2024-02-23T09:33:36;96952.19;;;6.65;77.13
47430;BME280;33181;49.246;7.372;2024-02-23T09:36:03;96952.47;;;6.62;76.61
47430;BME280;33181;49.246;7.372;2024-02-23T09:38:28;96946.41;;;6.62;76.56
47430;BME280;33181;49.246;7.372;2024-02-23T09:40:54;96951.66;;;6.52;76.07
47430;BME280;33181;49.246;7.372;2024-02-23T09:43:21;96953.41;;;6.61;76.20
47430;BME280;33181;49.246;7.372;2024-02-23T09:45:53;96948.13;;;6.53;75.88
47430;BME280;33181;49.246;7.372;2024-02-23T09:48:20;96943.69;;;6.63;75.44
47430;BME280;33181;49.246;7.372;2024-02-23T09:50:47;96950.53;;;6.64;75.50
47430;BME280;33181;49.246;7.372;2024-02-23T09:53:14;96958.94;;;6.58;76.13
47430;BME280;33181;49.246;7.372;2024-02-23T09:55:40;96960.34;;;6.53;76.93
47430;BME280;33181;49.246;7.372;2024-02-23T09:58:06;96957.13;;;6.68;76.73
47430;BME280;33181;49.246;7.372;2024-02-23T10:00:35;96958.22;;;6.66;76.00
47430;BME280;33181;49.246;7.372;2024-02-23T10:03:02;96953.25;;;6.72;77.38
47430;BME280;33181;49.246;7.372;2024-02-23T10:05:30;96961.81;;;6.92;77.09
47430;BME280;33181;49.246;7.372;2024-02-23T10:07:59;96963.19;;;6.87;76.17
47430;BME280;33181;49.246;7.372;2024-02-23T10:10:36;96961.50;;;6.95;75.91
47430;BME280;33181;49.246;7.372;2024-02-23T10:13:02;96957.28;;;6.94;75.49
47430;BME280;33181;49.246;7.372;2024-02-23T10:15:31;96955.88;;;7.00;75.76
47430;BME280;33181;49.246;7.372;2024-02-23T10:17:56;96963.66;;;7.28;74.22
47430;BME280;33181;49.246;7.372;2024-02-23T10:20:22;96966.44;;;7.26;73.63
47430;BME280;33181;49.246;7.372;2024-02-23T10:22:48;96959.16;;;7.48;73.15
47430;BME280;33181;49.246;7.372;2024-02-23T10:25:14;96959.44;;;7.45;72.50
47430;BME280;33181;49.246;7.372;2024-02-23T10:27:41;96958.66;;;7.34;71.96
47430;BME280;33181;49.246;7.372;2024-02-23T10:30:10;96951.94;;;7.14;72.57
47430;BME280;33181;49.246;7.372;2024-02-23T10:32:41;96963.00;;;6.98;72.26
47430;BME280;33181;49.246;7.372;2024-02-23T10:35:14;96950.03;;;6.88;72.90
47430;BME280;33181;49.246;7.372;2024-02-23T10:37:44;96951.00;;;6.87;73.34
47430;BME280;33181;49.246;7.372;2024-02-23T10:40:16;96948.38;;;6.87;73.51
47430;BME280;33181;49.246;7.372;2024-02-23T10:42:45;96952.97;;;7.03;73.54
47430;BME280;33181;49.246;7.372;2024-02-23T10:45:18;96952.47;;;6.90;73.30
47430;BME280;33181;49.246;7.372;2024-02-23T10:47:45;96953.00;;;6.93;73.34
47430;BME280;33181;49.246;7.372;2024-02-23T10:50:11;96954.25;;;6.89;73.85
47430;BME280;33181;49.246;7.372;2024-02-23T10:52:41;96959.19;;;6.92;74.51
47430;BME280;33181;49.246;7.372;2024-02-23T10:55:09;96957.50;;;7.01;74.96
47430;BME280;33181;49.246;7.372;2024-02-23T10:57:35;96950.44;;;6.84;75.76
47430;BME280;33181;49.246;7.372;2024-02-23T11:00:05;96953.81;;;6.66;75.81
47430;BME280;33181;49.246;7.372;2024-02-23T11:02:40;96962.72;;;6.73;76.79
47430;BME280;33181;49.246;7.372;2024-02-23T11:05:08;96956.09;;;6.79;77.34
47430;BME280;33181;49.246;7.372;2024-02-23T11:07:38;96950.72;;;7.08;77.20
47430;BME280;33181;49.246;7.372;2024-02-23T11:10:05;96946.19;;;7.10;74.99
47430;BME280;33181;49.246;7.372;2024-02-23T11:12:31;96940.91;;;7.20;74.41
47430;BME280;33181;49.246;7.372;2024-02-23T11:15:01;96933.00;;;7.30;74.27
47430;BME280;33181;49.246;7.372;2024-02-23T11:17:28;96933.88;;;7.74;74.39
47430;BME280;33181;49.246;7.372;2024-02-23T11:19:56;96927.88;;;8.00;70.87
47430;BME280;33181;49.246;7.372;2024-02-23T11:22:34;96924.00;;;8.30;71.62
47430;BME280;33181;49.246;7.372;2024-02-23T11:25:05;96906.69;;;8.63;69.36
47430;BME280;33181;49.246;7.372;2024-02-23T11:27:33;96910.66;;;8.67;68.01
47430;BME280;33181;49.246;7.372;2024-02-23T11:32:41;96916.25;;;8.80;67.36
47430;BME280;33181;49.246;7.372;2024-02-23T11:35:11;96902.75;;;9.10;64.53
47430;BME280;33181;49.246;7.372;2024-02-23T11:40:26;96906.16;;;8.94;61.57
47430;BME280;33181;49.246;7.372;2024-02-23T11:42:52;96907.16;;;8.58;63.29
47430;BME280;33181;49.246;7.372;2024-02-23T11:45:18;96908.22;;;8.74;63.71
47430;BME280;33181;49.246;7.372;2024-02-23T11:47:44;96904.97;;;8.88;62.59
47430;BME280;33181;49.246;7.372;2024-02-23T11:50:10;96906.50;;;8.56;62.72
47430;BME280;33181;49.246;7.372;2024-02-23T11:52:39;96906.69;;;8.63;61.82
47430;BME280;33181;49.246;7.372;2024-02-23T11:55:06;96912.72;;;8.29;64.01
47430;BME280;33181;49.246;7.372;2024-02-23T11:57:33;96910.28;;;8.10;63.15
47430;BME280;33181;49.246;7.372;2024-02-23T12:00:02;96910.53;;;8.17;62.75
47430;BME280;33181;49.246;7.372;2024-02-23T12:02:28;96913.34;;;8.23;63.21
47430;BME280;33181;49.246;7.372;2024-02-23T12:04:54;96906.44;;;8.22;63.96
47430;BME280;33181;49.246;7.372;2024-02-23T12:07:20;96917.88;;;8.21;63.15
47430;BME280;33181;49.246;7.372;2024-02-23T12:09:47;96911.13;;;8.36;63.41
47430;BME280;33181;49.246;7.372;2024-02-23T12:12:13;96910.03;;;8.39;62.10
47430;BME280;33181;49.246;7.372;2024-02-23T12:14:40;96919.03;;;8.45;61.32
47430;BME280;33181;49.246;7.372;2024-02-23T12:17:08;96915.28;;;8.21;60.83
47430;BME280;33181;49.246;7.372;2024-02-23T12:19:40;96904.50;;;8.24;61.47
47430;BME280;33181;49.246;7.372;2024-02-23T12:22:06;96907.25;;;8.23;61.60
47430;BME280;33181;49.246;7.372;2024-02-23T12:24:32;96900.88;;;8.43;62.30
47430;BME280;33181;49.246;7.372;2024-02-23T12:26:59;96908.16;;;8.57;61.80
47430;BME280;33181;49.246;7.372;2024-02-23T12:29:25;96909.63;;;8.60;61.49
47430;BME280;33181;49.246;7.372;2024-02-23T12:32:06;96907.34;;;8.65;62.81
47430;BME280;33181;49.246;7.372;2024-02-23T12:34:32;96902.25;;;8.64;62.14
47430;BME280;33181;49.246;7.372;2024-02-23T12:36:58;96890.09;;;8.89;61.95
47430;BME280;33181;49.246;7.372;2024-02-23T12:39:24;96885.88;;;9.04;61.13
47430;BME280;33181;49.246;7.372;2024-02-23T12:41:50;96892.91;;;8.95;58.86
47430;BME280;33181;49.246;7.372;2024-02-23T12:44:16;96891.69;;;8.73;58.21
47430;BME280;33181;49.246;7.372;2024-02-23T12:46:42;96883.66;;;8.75;59.35
47430;BME280;33181;49.246;7.372;2024-02-23T12:49:08;96889.34;;;8.62;59.09
47430;BME280;33181;49.246;7.372;2024-02-23T12:51:33;96884.56;;;8.49;59.30
47430;BME280;33181;49.246;7.372;2024-02-23T12:54:00;96878.03;;;8.53;60.57
47430;BME280;33181;49.246;7.372;2024-02-23T12:56:26;96881.19;;;8.65;59.46
47430;BME280;33181;49.246;7.372;2024-02-23T12:58:52;96873.16;;;8.67;59.55
47430;BME280;33181;49.246;7.372;2024-02-23T13:01:19;96879.91;;;8.77;59.62
47430;BME280;33181;49.246;7.372;2024-02-23T13:03:45;96871.13;;;8.95;59.69
47430;BME280;33181;49.246;7.372;2024-02-23T13:06:11;96877.50;;;8.84;58.21
47430;BME280;33181;49.246;7.372;2024-02-23T13:08:38;96868.19;;;8.90;59.38
47430;BME280;33181;49.246;7.372;2024-02-23T13:11:06;96865.84;;;8.70;59.15
47430;BME280;33181;49.246;7.372;2024-02-23T13:13:32;96861.78;;;8.84;59.05
47430;BME280;33181;49.246;7.372;2024-02-23T13:15:58;96860.16;;;8.91;58.85